sensor_id;sensor_type;location;lat;lon;timestamp;noise_LAeq;noise_LA_min;noise_LA_max;noise_LA01;noise_LA95
48503;Laerm;4954;48.476;8.168;2024-03-02T00:01:37;53.99;41.53;70.56;;
48503;Laerm;4954;48.476;8.168;2024-03-02T00:04:04;54.91;41.38;70.64;;
48503;Laerm;4954;48.476;8.168;2024-03-02T00:06:33;55.42;41.30;73.09;;
48503;Laerm;4954;48.476;8.168;2024-03-02T00:09:03;42.95;41.61;47.46;;
48503;Laerm;4954;48.476;8.168;2024-03-02T00:11:30;56.81;41.46;70.92;;
48503;Laerm;4954;48.476;8.168;2024-03-02T00:13:58;58.55;41.38;73.89;;
48503;Laerm;4954;48.476;8.168;2024-03-02T00:16:30;53.99;41.46;70.28;;
48503;Laerm;4954;48.476;8.168;2024-03-02T00:19:02;51.86;41.61;67.54;;
48503;Laerm;4954;48.476;8.168;2024-03-02T00:21:31;54.48;41.61;71.30;;
48503;Laerm;4954;48.476;8.168;2024-03-02T00:23:58;56.89;41.75;72.46;;
48503;Laerm;4954;48.476;8.168;2024-03-02T00:26:26;55.69;41.75;73.85;;
48503;Laerm;4954;48.476;8.168;2024-03-02T00:28:55;42.99;41.53;46.07;;
48503;Laerm;4954;48.476;8.168;2024-03-02T00:31:25;42.90;41.53;45.20;;
48503;Laerm;4954;48.476;8.168;2024-03-02T00:33:52;53.68;41.75;70.61;;
48503;Laerm;4954;48.476;8.168;2024-03-02T00:36:24;43.19;41.61;45.33;;
48503;Laerm;4954;48.476;8.168;2024-03-02T00:38:54;43.16;41.53;45.57;;
48503;Laerm;4954;48.476;8.168;2024-03-02T00:41:29;42.94;41.61;47.28;;
48503;Laerm;4954;48.476;8.168;2024-03-02T00:44:00;42.84;41.38;45.27;;
48503;Laerm;4954;48.476;8.168;2024-03-02T00:46:33;42.98;41.22;47.93;;
48503;Laerm;4954;48.476;8.168;2024-03-02T00:49:03;53.29;41.30;68.02;;
48503;Laerm;4954;48.476;8.168;2024-03-02T00:51:33;43.45;41.14;48.98;;
48503;Laerm;4954;48.476;8.168;2024-03-02T00:54:03;42.86;41.38;49.90;;
48503;Laerm;4954;48.476;8.168;2024-03-02T00:56:32;42.93;41.38;45.33;;
48503;Laerm;4954;48.476;8.168;2024-03-02T00:59:00;42.94;41.30;46.30;;
48503;Laerm;4954;48.476;8.168;2024-03-02T01:01:27;42.93;41.22;49.30;;
48503;Laerm;4954;48.476;8.168;2024-03-02T01:03:55;42.86;41.22;46.25;;
48503;Laerm;4954;48.476;8.168;2024-03-02T01:06:23;54.44;41.46;71.98;;
48503;Laerm;4954;48.476;8.168;2024-03-02T01:08:50;52.37;41.30;68.39;;
48503;Laerm;4954;48.476;8.168;2024-03-02T01:11:18;42.77;41.22;45.27;;
48503;Laerm;4954;48.476;8.168;2024-03-02T01:13:48;42.82;41.06;44.65;;
48503;Laerm;4954;48.476;8.168;2024-03-02T01:16:15;56.30;41.53;73.54;;
48503;Laerm;4954;48.476;8.168;2024-03-02T01:18:42;43.07;41.06;49.28;;
48503;Laerm;4954;48.476;8.168;2024-03-02T01:21:10;43.04;41.30;48.51;;
48503;Laerm;4954;48.476;8.168;2024-03-02T01:23:37;43.09;41.30;52.14;;
48503;Laerm;4954;48.476;8.168;2024-03-02T01:26:04;42.88;41.38;48.10;;
48503;Laerm;4954;48.476;8.168;2024-03-02T01:28:31;54.39;41.30;72.25;;
48503;Laerm;4954;48.476;8.168;2024-03-02T01:30:58;43.31;41.30;50.20;;
48503;Laerm;4954;48.476;8.168;2024-03-02T01:33:25;54.41;41.53;70.93;;
48503;Laerm;4954;48.476;8.168;2024-03-02T01:35:52;43.03;41.30;45.51;;
48503;Laerm;4954;48.476;8.168;2024-03-02T01:38:20;43.26;41.75;45.04;;
48503;Laerm;4954;48.476;8.168;2024-03-02T01:40:47;52.19;41.68;68.52;;
48503;Laerm;4954;48.476;8.168;2024-03-02T01:43:14;43.86;41.22;64.50;;
48503;Laerm;4954;48.476;8.168;2024-03-02T01:45:41;43.13;41.38;47.36;;
48503;Laerm;4954;48.476;8.168;2024-03-02T01:48:08;53.45;41.46;69.65;;
48503;Laerm;4954;48.476;8.168;2024-03-02T01:50:36;42.87;41.38;45.54;;
48503;Laerm;4954;48.476;8.168;2024-03-02T01:53:03;52.20;41.53;67.93;;
48503;Laerm;4954;48.476;8.168;2024-03-02T01:55:32;43.02;41.38;44.54;;
48503;Laerm;4954;48.476;8.168;2024-03-02T01:58:00;43.07;41.30;45.07;;
48503;Laerm;4954;48.476;8.168;2024-03-02T02:00:28;43.02;41.75;44.90;;
48503;Laerm;4954;48.476;8.168;2024-03-02T02:02:55;42.87;41.46;46.50;;
48503;Laerm;4954;48.476;8.168;2024-03-02T02:05:23;43.00;41.38;44.87;;
48503;Laerm;4954;48.476;8.168;2024-03-02T02:07:50;54.34;41.68;71.52;;
48503;Laerm;4954;48.476;8.168;2024-03-02T02:10:17;43.06;41.30;45.48;;
48503;Laerm;4954;48.476;8.168;2024-03-02T02:12:48;43.12;41.61;46.33;;
48503;Laerm;4954;48.476;8.168;2024-03-02T02:15:27;42.91;41.38;45.33;;
48503;Laerm;4954;48.476;8.168;2024-03-02T02:17:54;43.04;41.46;45.54;;
48503;Laerm;4954;48.476;8.168;2024-03-02T02:20:22;43.46;41.22;48.13;;
48503;Laerm;4954;48.476;8.168;2024-03-02T02:23:00;54.86;41.61;72.34;;
48503;Laerm;4954;48.476;8.168;2024-03-02T02:25:28;53.33;41.46;70.48;;
48503;Laerm;4954;48.476;8.168;2024-03-02T02:27:56;51.32;41.38;66.01;;
48503;Laerm;4954;48.476;8.168;2024-03-02T02:30:26;42.87;40.89;44.69;;
48503;Laerm;4954;48.476;8.168;2024-03-02T02:32:54;43.17;41.68;50.44;;
48503;Laerm;4954;48.476;8.168;2024-03-02T02:35:21;46.97;41.89;64.12;;
48503;Laerm;4954;48.476;8.168;2024-03-02T02:37:51;46.53;41.89;66.97;;
48503;Laerm;4954;48.476;8.168;2024-03-02T02:40:21;43.30;41.68;45.39;;
48503;Laerm;4954;48.476;8.168;2024-03-02T02:42:48;43.25;41.89;46.43;;
48503;Laerm;4954;48.476;8.168;2024-03-02T02:45:16;43.03;41.38;44.97;;
48503;Laerm;4954;48.476;8.168;2024-03-02T02:47:43;50.69;41.38;65.13;;
48503;Laerm;4954;48.476;8.168;2024-03-02T02:50:11;42.97;41.46;46.15;;
48503;Laerm;4954;48.476;8.168;2024-03-02T02:52:41;43.06;41.38;51.20;;
48503;Laerm;4954;48.476;8.168;2024-03-02T02:55:11;42.95;41.53;48.70;;
48503;Laerm;4954;48.476;8.168;2024-03-02T02:57:41;55.83;41.38;74.88;;
48503;Laerm;4954;48.476;8.168;2024-03-02T03:00:11;43.01;41.68;45.23;;
48503;Laerm;4954;48.476;8.168;2024-03-02T03:02:40;42.84;41.38;44.94;;
48503;Laerm;4954;48.476;8.168;2024-03-02T03:05:10;42.88;41.53;46.64;;
48503;Laerm;4954;48.476;8.168;2024-03-02T03:07:37;43.00;41.38;49.88;;
48503;Laerm;4954;48.476;8.168;2024-03-02T03:10:07;42.98;41.46;45.01;;
48503;Laerm;4954;48.476;8.168;2024-03-02T03:12:35;42.98;41.38;45.07;;
48503;Laerm;4954;48.476;8.168;2024-03-02T03:15:04;43.02;41.38;47.55;;
48503;Laerm;4954;48.476;8.168;2024-03-02T03:17:32;43.31;41.46;63.64;;
48503;Laerm;4954;48.476;8.168;2024-03-02T03:19:59;43.23;41.68;46.05;;
48503;Laerm;4954;48.476;8.168;2024-03-02T03:22:26;43.37;41.96;45.83;;
48503;Laerm;4954;48.476;8.168;2024-03-02T03:24:53;43.23;41.75;45.27;;
48503;Laerm;4954;48.476;8.168;2024-03-02T03:27:20;44.84;41.75;59.33;;
48503;Laerm;4954;48.476;8.168;2024-03-02T03:29:47;43.44;41.46;49.25;;
48503;Laerm;4954;48.476;8.168;2024-03-02T03:32:15;42.96;41.61;47.65;;
48503;Laerm;4954;48.476;8.168;2024-03-02T03:34:44;42.84;41.46;45.33;;
48503;Laerm;4954;48.476;8.168;2024-03-02T03:37:11;42.98;41.61;44.65;;
48503;Laerm;4954;48.476;8.168;2024-03-02T03:39:38;53.74;41.38;71.04;;
48503;Laerm;4954;48.476;8.168;2024-03-02T03:42:05;42.87;41.14;47.74;;
48503;Laerm;4954;48.476;8.168;2024-03-02T03:44:32;43.10;41.46;60.17;;
48503;Laerm;4954;48.476;8.168;2024-03-02T03:46:59;51.96;41.68;67.99;;
48503;Laerm;4954;48.476;8.168;2024-03-02T03:49:29;42.98;41.68;45.17;;
48503;Laerm;4954;48.476;8.168;2024-03-02T03:51:56;56.47;41.75;70.33;;
48503;Laerm;4954;48.476;8.168;2024-03-02T03:54:22;54.85;41.53;71.44;;
48503;Laerm;4954;48.476;8.168;2024-03-02T03:56:49;52.28;41.38;67.90;;
48503;Laerm;4954;48.476;8.168;2024-03-02T03:59:16;58.01;41.53;71.57;;
48503;Laerm;4954;48.476;8.168;2024-03-02T04:01:43;42.92;41.46;45.54;;
48503;Laerm;4954;48.476;8.168;2024-03-02T04:04:10;43.07;41.75;45.69;;
48503;Laerm;4954;48.476;8.168;2024-03-02T04:06:38;53.46;41.46;70.04;;
48503;Laerm;4954;48.476;8.168;2024-03-02T04:09:05;42.98;41.53;44.73;;
48503;Laerm;4954;48.476;8.168;2024-03-02T04:11:32;55.21;41.89;72.52;;
48503;Laerm;4954;48.476;8.168;2024-03-02T04:13:59;43.39;41.75;47.72;;
48503;Laerm;4954;48.476;8.168;2024-03-02T04:16:26;54.34;41.61;71.65;;
48503;Laerm;4954;48.476;8.168;2024-03-02T04:18:54;43.69;42.09;45.60;;
48503;Laerm;4954;48.476;8.168;2024-03-02T04:21:21;43.65;42.22;45.39;;
48503;Laerm;4954;48.476;8.168;2024-03-02T04:23:49;45.00;41.82;56.06;;
48503;Laerm;4954;48.476;8.168;2024-03-02T04:26:16;67.65;41.38;82.46;;
48503;Laerm;4954;48.476;8.168;2024-03-02T04:28:47;42.99;40.98;45.48;;
48503;Laerm;4954;48.476;8.168;2024-03-02T04:31:15;42.97;41.61;44.73;;
48503;Laerm;4954;48.476;8.168;2024-03-02T04:33:42;42.90;41.38;45.99;;
48503;Laerm;4954;48.476;8.168;2024-03-02T04:36:08;43.07;41.46;50.17;;
48503;Laerm;4954;48.476;8.168;2024-03-02T04:38:36;50.45;41.46;65.16;;
48503;Laerm;4954;48.476;8.168;2024-03-02T04:41:05;42.96;41.61;45.20;;
48503;Laerm;4954;48.476;8.168;2024-03-02T04:43:32;42.99;41.46;45.17;;
48503;Laerm;4954;48.476;8.168;2024-03-02T04:46:00;43.21;41.82;49.90;;
48503;Laerm;4954;48.476;8.168;2024-03-02T04:48:27;53.20;41.82;69.64;;
48503;Laerm;4954;48.476;8.168;2024-03-02T04:50:54;56.03;41.75;69.11;;
48503;Laerm;4954;48.476;8.168;2024-03-02T04:53:20;44.03;41.53;53.51;;
48503;Laerm;4954;48.476;8.168;2024-03-02T04:55:47;44.49;41.68;52.79;;
48503;Laerm;4954;48.476;8.168;2024-03-02T04:58:46;52.48;41.53;69.48;;
48503;Laerm;4954;48.476;8.168;2024-03-02T05:01:13;53.10;41.53;69.13;;
48503;Laerm;4954;48.476;8.168;2024-03-02T05:03:42;52.52;41.68;69.42;;
48503;Laerm;4954;48.476;8.168;2024-03-02T05:06:09;56.21;41.75;71.99;;
48503;Laerm;4954;48.476;8.168;2024-03-02T05:08:36;45.43;42.09;51.70;;
48503;Laerm;4954;48.476;8.168;2024-03-02T05:11:03;56.10;42.71;73.33;;
48503;Laerm;4954;48.476;8.168;2024-03-02T05:13:45;54.75;42.29;68.06;;
48503;Laerm;4954;48.476;8.168;2024-03-02T05:16:12;45.58;42.16;53.10;;
48503;Laerm;4954;48.476;8.168;2024-03-02T05:18:39;55.33;42.16;71.15;;
48503;Laerm;4954;48.476;8.168;2024-03-02T05:21:06;59.70;42.82;75.03;;
48503;Laerm;4954;48.476;8.168;2024-03-02T05:23:33;58.52;42.53;72.48;;
48503;Laerm;4954;48.476;8.168;2024-03-02T05:25:59;45.84;42.65;62.52;;
48503;Laerm;4954;48.476;8.168;2024-03-02T05:28:26;54.26;42.71;70.41;;
48503;Laerm;4954;48.476;8.168;2024-03-02T05:30:55;56.27;41.89;75.72;;
48503;Laerm;4954;48.476;8.168;2024-03-02T05:33:22;56.32;42.03;71.94;;
48503;Laerm;4954;48.476;8.168;2024-03-02T05:35:49;53.88;42.29;71.02;;
48503;Laerm;4954;48.476;8.168;2024-03-02T05:38:16;44.66;42.41;51.20;;
48503;Laerm;4954;48.476;8.168;2024-03-02T05:40:43;53.54;42.76;70.14;;
48503;Laerm;4954;48.476;8.168;2024-03-02T05:43:10;60.18;42.29;75.09;;
48503;Laerm;4954;48.476;8.168;2024-03-02T05:45:37;57.27;42.88;67.55;;
48503;Laerm;4954;48.476;8.168;2024-03-02T05:48:07;57.92;42.22;73.22;;
48503;Laerm;4954;48.476;8.168;2024-03-02T05:50:34;58.90;42.35;72.50;;
48503;Laerm;4954;48.476;8.168;2024-03-02T05:53:01;58.87;42.65;72.73;;
48503;Laerm;4954;48.476;8.168;2024-03-02T05:55:28;44.68;42.22;54.05;;
48503;Laerm;4954;48.476;8.168;2024-03-02T05:57:55;56.05;42.03;71.75;;
48503;Laerm;4954;48.476;8.168;2024-03-02T06:00:37;57.22;42.65;71.99;;
48503;Laerm;4954;48.476;8.168;2024-03-02T06:03:05;57.21;43.34;72.62;;
48503;Laerm;4954;48.476;8.168;2024-03-02T06:05:33;45.21;42.22;51.22;;
48503;Laerm;4954;48.476;8.168;2024-03-02T06:08:00;52.24;42.03;68.63;;
48503;Laerm;4954;48.476;8.168;2024-03-02T06:10:27;60.02;42.59;75.79;;
48503;Laerm;4954;48.476;8.168;2024-03-02T06:12:54;55.99;42.22;70.72;;
48503;Laerm;4954;48.476;8.168;2024-03-02T06:15:21;61.69;42.09;74.52;;
48503;Laerm;4954;48.476;8.168;2024-03-02T06:17:48;57.05;42.88;68.30;;
48503;Laerm;4954;48.476;8.168;2024-03-02T06:20:16;57.20;42.35;72.25;;
48503;Laerm;4954;48.476;8.168;2024-03-02T06:22:43;58.03;42.59;70.61;;
48503;Laerm;4954;48.476;8.168;2024-03-02T06:25:10;58.47;42.71;72.40;;
48503;Laerm;4954;48.476;8.168;2024-03-02T06:27:37;58.02;42.93;74.76;;
48503;Laerm;4954;48.476;8.168;2024-03-02T06:30:05;61.06;48.00;72.27;;
48503;Laerm;4954;48.476;8.168;2024-03-02T06:32:34;58.41;51.17;75.12;;
48503;Laerm;4954;48.476;8.168;2024-03-02T06:35:01;67.20;43.04;83.21;;
48503;Laerm;4954;48.476;8.168;2024-03-02T06:37:31;59.87;42.53;73.40;;
48503;Laerm;4954;48.476;8.168;2024-03-02T06:39:57;62.31;43.99;77.33;;
48503;Laerm;4954;48.476;8.168;2024-03-02T06:42:24;60.99;43.24;75.40;;
48503;Laerm;4954;48.476;8.168;2024-03-02T06:44:51;63.83;44.87;73.95;;
48503;Laerm;4954;48.476;8.168;2024-03-02T06:47:19;58.42;42.22;74.97;;
48503;Laerm;4954;48.476;8.168;2024-03-02T06:49:46;60.03;42.98;70.70;;
48503;Laerm;4954;48.476;8.168;2024-03-02T06:52:12;63.80;44.62;75.57;;
48503;Laerm;4954;48.476;8.168;2024-03-02T06:54:41;61.66;43.24;76.10;;
48503;Laerm;4954;48.476;8.168;2024-03-02T06:57:08;67.26;42.82;83.16;;
48503;Laerm;4954;48.476;8.168;2024-03-02T06:59:35;60.33;42.98;71.97;;
48503;Laerm;4954;48.476;8.168;2024-03-02T07:02:02;58.30;43.04;71.66;;
48503;Laerm;4954;48.476;8.168;2024-03-02T07:04:29;58.67;42.76;70.54;;
48503;Laerm;4954;48.476;8.168;2024-03-02T07:06:56;57.33;42.41;69.59;;
48503;Laerm;4954;48.476;8.168;2024-03-02T07:09:23;56.56;42.47;70.38;;
48503;Laerm;4954;48.476;8.168;2024-03-02T07:11:52;58.52;43.33;71.27;;
48503;Laerm;4954;48.476;8.168;2024-03-02T07:14:19;58.93;42.79;71.31;;
48503;Laerm;4954;48.476;8.168;2024-03-02T07:16:46;61.27;44.31;70.65;;
48503;Laerm;4954;48.476;8.168;2024-03-02T07:19:12;63.00;44.80;73.64;;
48503;Laerm;4954;48.476;8.168;2024-03-02T07:21:39;58.30;44.15;71.54;;
48503;Laerm;4954;48.476;8.168;2024-03-02T07:24:06;57.78;43.77;69.33;;
48503;Laerm;4954;48.476;8.168;2024-03-02T07:26:35;62.29;44.07;72.96;;
48503;Laerm;4954;48.476;8.168;2024-03-02T07:29:03;61.43;43.44;73.30;;
48503;Laerm;4954;48.476;8.168;2024-03-02T07:31:30;62.51;44.11;76.46;;
48503;Laerm;4954;48.476;8.168;2024-03-02T07:33:57;61.92;42.82;74.24;;
48503;Laerm;4954;48.476;8.168;2024-03-02T07:36:24;64.82;42.41;78.85;;
48503;Laerm;4954;48.476;8.168;2024-03-02T07:38:51;63.83;47.30;76.60;;
48503;Laerm;4954;48.476;8.168;2024-03-02T07:41:20;61.08;42.41;75.59;;
48503;Laerm;4954;48.476;8.168;2024-03-02T07:43:47;61.52;44.27;73.11;;
48503;Laerm;4954;48.476;8.168;2024-03-02T07:46:15;63.30;44.31;73.43;;
48503;Laerm;4954;48.476;8.168;2024-03-02T07:48:43;65.04;47.09;76.33;;
48503;Laerm;4954;48.476;8.168;2024-03-02T07:51:10;60.14;42.59;72.79;;
48503;Laerm;4954;48.476;8.168;2024-03-02T07:53:37;63.09;47.59;73.02;;
48503;Laerm;4954;48.476;8.168;2024-03-02T07:56:05;61.91;43.54;73.34;;
48503;Laerm;4954;48.476;8.168;2024-03-02T07:58:32;62.32;43.68;71.60;;
48503;Laerm;4954;48.476;8.168;2024-03-02T08:00:59;64.09;42.98;78.58;;
48503;Laerm;4954;48.476;8.168;2024-03-02T08:03:28;57.49;41.82;72.44;;
48503;Laerm;4954;48.476;8.168;2024-03-02T08:05:55;60.73;42.82;70.54;;
48503;Laerm;4954;48.476;8.168;2024-03-02T08:08:21;62.03;42.82;73.92;;
48503;Laerm;4954;48.476;8.168;2024-03-02T08:10:48;61.43;44.72;70.57;;
48503;Laerm;4954;48.476;8.168;2024-03-02T08:13:15;58.29;42.71;70.89;;
48503;Laerm;4954;48.476;8.168;2024-03-02T08:15:42;61.48;43.34;73.02;;
48503;Laerm;4954;48.476;8.168;2024-03-02T08:18:09;60.73;43.63;71.32;;
48503;Laerm;4954;48.476;8.168;2024-03-02T08:20:38;61.54;43.19;74.77;;
48503;Laerm;4954;48.476;8.168;2024-03-02T08:23:05;64.14;43.49;72.88;;
48503;Laerm;4954;48.476;8.168;2024-03-02T08:25:32;63.47;46.43;74.83;;
48503;Laerm;4954;48.476;8.168;2024-03-02T08:27:59;62.26;43.72;72.22;;
48503;Laerm;4954;48.476;8.168;2024-03-02T08:30:27;61.47;42.53;70.63;;
48503;Laerm;4954;48.476;8.168;2024-03-02T08:32:54;60.28;43.99;70.23;;
48503;Laerm;4954;48.476;8.168;2024-03-02T08:35:21;61.98;42.76;72.65;;
48503;Laerm;4954;48.476;8.168;2024-03-02T08:37:50;65.10;43.54;78.36;;
48503;Laerm;4954;48.476;8.168;2024-03-02T08:40:17;57.62;42.59;71.30;;
48503;Laerm;4954;48.476;8.168;2024-03-02T08:42:44;62.02;42.71;70.87;;
48503;Laerm;4954;48.476;8.168;2024-03-02T08:45:12;58.72;41.96;74.39;;
48503;Laerm;4954;48.476;8.168;2024-03-02T08:47:39;61.30;44.11;72.68;;
48503;Laerm;4954;48.476;8.168;2024-03-02T08:50:07;61.56;43.90;69.92;;
48503;Laerm;4954;48.476;8.168;2024-03-02T08:52:35;63.13;46.50;72.13;;
48503;Laerm;4954;48.476;8.168;2024-03-02T08:55:04;61.62;43.54;72.18;;
48503;Laerm;4954;48.476;8.168;2024-03-02T08:57:33;59.64;42.35;71.11;;
48503;Laerm;4954;48.476;8.168;2024-03-02T09:00:00;63.28;45.20;78.33;;
48503;Laerm;4954;48.476;8.168;2024-03-02T09:02:27;65.99;44.47;80.76;;
48503;Laerm;4954;48.476;8.168;2024-03-02T09:04:54;62.80;43.90;72.60;;
48503;Laerm;4954;48.476;8.168;2024-03-02T09:07:21;59.40;42.98;70.26;;
48503;Laerm;4954;48.476;8.168;2024-03-02T09:09:48;63.23;45.75;72.25;;
48503;Laerm;4954;48.476;8.168;2024-03-02T09:12:16;62.05;43.09;80.77;;
48503;Laerm;4954;48.476;8.168;2024-03-02T09:14:44;64.33;43.49;82.73;;
48503;Laerm;4954;48.476;8.168;2024-03-02T09:17:11;63.05;46.64;71.25;;
48503;Laerm;4954;48.476;8.168;2024-03-02T09:19:39;62.24;45.60;74.06;;
48503;Laerm;4954;48.476;8.168;2024-03-02T09:22:06;62.44;45.75;71.83;;
48503;Laerm;4954;48.476;8.168;2024-03-02T09:24:33;67.71;44.23;83.94;;
48503;Laerm;4954;48.476;8.168;2024-03-02T09:27:00;72.71;45.04;86.12;;
48503;Laerm;4954;48.476;8.168;2024-03-02T09:29:28;62.57;42.76;72.13;;
48503;Laerm;4954;48.476;8.168;2024-03-02T09:31:55;64.32;42.71;77.34;;
48503;Laerm;4954;48.476;8.168;2024-03-02T09:34:22;64.42;45.66;72.66;;
48503;Laerm;4954;48.476;8.168;2024-03-02T09:36:50;63.10;47.36;72.68;;
48503;Laerm;4954;48.476;8.168;2024-03-02T09:39:18;62.91;44.90;73.01;;
48503;Laerm;4954;48.476;8.168;2024-03-02T09:41:45;62.65;44.82;74.11;;
48503;Laerm;4954;48.476;8.168;2024-03-02T09:44:12;62.89;44.07;74.56;;
48503;Laerm;4954;48.476;8.168;2024-03-02T09:46:41;62.00;44.11;72.04;;
48503;Laerm;4954;48.476;8.168;2024-03-02T09:49:09;60.89;45.07;69.59;;
48503;Laerm;4954;48.476;8.168;2024-03-02T09:51:37;61.31;44.94;69.87;;
48503;Laerm;4954;48.476;8.168;2024-03-02T09:54:04;62.03;45.69;71.44;;
48503;Laerm;4954;48.476;8.168;2024-03-02T09:56:33;61.72;44.27;69.31;;
48503;Laerm;4954;48.476;8.168;2024-03-02T09:59:01;64.44;46.40;73.74;;
48503;Laerm;4954;48.476;8.168;2024-03-02T10:01:28;61.57;42.76;74.30;;
48503;Laerm;4954;48.476;8.168;2024-03-02T10:03:59;62.36;44.65;71.67;;
48503;Laerm;4954;48.476;8.168;2024-03-02T10:06:28;61.22;43.19;72.87;;
48503;Laerm;4954;48.476;8.168;2024-03-02T10:08:56;62.96;47.55;72.56;;
48503;Laerm;4954;48.476;8.168;2024-03-02T10:11:27;62.53;42.71;72.56;;
48503;Laerm;4954;48.476;8.168;2024-03-02T10:14:05;61.83;43.94;70.23;;
48503;Laerm;4954;48.476;8.168;2024-03-02T10:16:38;62.73;44.03;70.32;;
48503;Laerm;4954;48.476;8.168;2024-03-02T10:19:21;60.56;43.34;71.20;;
48503;Laerm;4954;48.476;8.168;2024-03-02T10:21:49;72.15;44.11;88.42;;
48503;Laerm;4954;48.476;8.168;2024-03-02T10:24:16;61.85;45.07;70.82;;
48503;Laerm;4954;48.476;8.168;2024-03-02T10:26:43;63.06;43.09;76.38;;
48503;Laerm;4954;48.476;8.168;2024-03-02T10:29:11;63.53;43.29;72.29;;
48503;Laerm;4954;48.476;8.168;2024-03-02T10:31:39;59.16;42.93;68.80;;
48503;Laerm;4954;48.476;8.168;2024-03-02T10:34:06;63.74;44.23;72.73;;
48503;Laerm;4954;48.476;8.168;2024-03-02T10:36:35;61.17;44.31;76.59;;
48503;Laerm;4954;48.476;8.168;2024-03-02T10:39:03;61.95;42.98;72.31;;
48503;Laerm;4954;48.476;8.168;2024-03-02T10:41:33;61.75;42.16;73.08;;
48503;Laerm;4954;48.476;8.168;2024-03-02T10:44:03;62.19;44.15;73.82;;
48503;Laerm;4954;48.476;8.168;2024-03-02T10:46:33;60.93;45.04;70.67;;
48503;Laerm;4954;48.476;8.168;2024-03-02T10:49:01;68.67;44.39;83.08;;
48503;Laerm;4954;48.476;8.168;2024-03-02T10:51:31;62.48;46.95;71.06;;
48503;Laerm;4954;48.476;8.168;2024-03-02T10:54:01;66.82;44.39;83.14;;
48503;Laerm;4954;48.476;8.168;2024-03-02T10:56:30;62.95;43.72;71.51;;
48503;Laerm;4954;48.476;8.168;2024-03-02T10:59:03;63.03;44.65;73.18;;
48503;Laerm;4954;48.476;8.168;2024-03-02T11:01:33;63.96;44.20;79.02;;
48503;Laerm;4954;48.476;8.168;2024-03-02T11:04:04;64.59;43.86;79.12;;
48503;Laerm;4954;48.476;8.168;2024-03-02T11:06:36;63.76;43.04;72.43;;
48503;Laerm;4954;48.476;8.168;2024-03-02T11:09:07;61.82;45.30;72.84;;
48503;Laerm;4954;48.476;8.168;2024-03-02T11:11:40;64.47;45.80;78.98;;
48503;Laerm;4954;48.476;8.168;2024-03-02T11:14:16;63.61;43.14;73.62;;
48503;Laerm;4954;48.476;8.168;2024-03-02T11:16:44;63.20;43.04;75.31;;
48503;Laerm;4954;48.476;8.168;2024-03-02T11:19:14;61.71;42.35;74.94;;
48503;Laerm;4954;48.476;8.168;2024-03-02T11:21:43;62.10;43.63;71.91;;
48503;Laerm;4954;48.476;8.168;2024-03-02T11:24:33;63.86;44.97;73.86;;
48503;Laerm;4954;48.476;8.168;2024-03-02T11:27:02;63.71;43.72;77.87;;
48503;Laerm;4954;48.476;8.168;2024-03-02T11:29:46;64.53;47.10;77.57;;
48503;Laerm;4954;48.476;8.168;2024-03-02T11:32:21;64.81;42.09;77.04;;
48503;Laerm;4954;48.476;8.168;2024-03-02T11:34:50;61.41;42.47;75.25;;
48503;Laerm;4954;48.476;8.168;2024-03-02T11:37:19;62.45;43.14;74.46;;
48503;Laerm;4954;48.476;8.168;2024-03-02T11:39:50;74.14;45.75;91.10;;
48503;Laerm;4954;48.476;8.168;2024-03-02T11:42:18;61.08;42.16;72.57;;
48503;Laerm;4954;48.476;8.168;2024-03-02T11:44:47;68.45;48.57;86.84;;
48503;Laerm;4954;48.476;8.168;2024-03-02T11:47:16;66.62;44.80;82.23;;
48503;Laerm;4954;48.476;8.168;2024-03-02T11:49:44;58.20;42.41;69.49;;
48503;Laerm;4954;48.476;8.168;2024-03-02T11:52:13;64.67;42.47;77.56;;
48503;Laerm;4954;48.476;8.168;2024-03-02T11:54:42;61.12;41.96;71.84;;
48503;Laerm;4954;48.476;8.168;2024-03-02T11:57:16;60.46;44.07;71.97;;
48503;Laerm;4954;48.476;8.168;2024-03-02T11:59:43;71.26;42.65;87.56;;
48503;Laerm;4954;48.476;8.168;2024-03-02T12:02:16;63.85;44.51;79.22;;
48503;Laerm;4954;48.476;8.168;2024-03-02T12:04:44;60.87;42.82;71.41;;
48503;Laerm;4954;48.476;8.168;2024-03-02T12:07:12;62.42;41.46;82.98;;
48503;Laerm;4954;48.476;8.168;2024-03-02T12:09:45;67.12;44.54;88.59;;
48503;Laerm;4954;48.476;8.168;2024-03-02T12:12:12;61.36;41.68;76.14;;
48503;Laerm;4954;48.476;8.168;2024-03-02T12:14:52;62.95;43.09;74.19;;
48503;Laerm;4954;48.476;8.168;2024-03-02T12:17:21;64.79;43.04;86.35;;
48503;Laerm;4954;48.476;8.168;2024-03-02T12:19:49;62.60;44.08;71.88;;
48503;Laerm;4954;48.476;8.168;2024-03-02T12:22:16;62.84;43.04;75.64;;
48503;Laerm;4954;48.476;8.168;2024-03-02T12:24:44;64.02;45.45;74.04;;
48503;Laerm;4954;48.476;8.168;2024-03-02T12:27:12;64.03;44.58;81.14;;
48503;Laerm;4954;48.476;8.168;2024-03-02T12:29:41;60.54;42.09;69.40;;
48503;Laerm;4954;48.476;8.168;2024-03-02T12:32:10;69.66;47.32;87.30;;
48503;Laerm;4954;48.476;8.168;2024-03-02T12:34:38;62.44;42.53;75.10;;
48503;Laerm;4954;48.476;8.168;2024-03-02T12:37:05;62.87;44.87;72.74;;
48503;Laerm;4954;48.476;8.168;2024-03-02T12:39:32;63.78;45.27;73.37;;
48503;Laerm;4954;48.476;8.168;2024-03-02T12:41:59;67.89;46.69;84.06;;
48503;Laerm;4954;48.476;8.168;2024-03-02T12:44:26;63.02;43.63;74.34;;
48503;Laerm;4954;48.476;8.168;2024-03-02T12:46:53;64.31;42.22;77.40;;
48503;Laerm;4954;48.476;8.168;2024-03-02T12:49:22;67.51;42.47;80.85;;
48503;Laerm;4954;48.476;8.168;2024-03-02T12:51:50;66.00;43.81;80.07;;
48503;Laerm;4954;48.476;8.168;2024-03-02T12:54:22;66.98;47.08;79.03;;
48503;Laerm;4954;48.476;8.168;2024-03-02T12:56:51;67.17;45.72;83.12;;
48503;Laerm;4954;48.476;8.168;2024-03-02T12:59:23;72.27;41.30;87.58;;
48503;Laerm;4954;48.476;8.168;2024-03-02T13:01:52;66.61;45.42;83.15;;
48503;Laerm;4954;48.476;8.168;2024-03-02T13:04:24;63.92;46.71;76.94;;
48503;Laerm;4954;48.476;8.168;2024-03-02T13:06:52;64.71;44.35;77.40;;
48503;Laerm;4954;48.476;8.168;2024-03-02T13:09:20;62.60;46.71;72.20;;
48503;Laerm;4954;48.476;8.168;2024-03-02T13:11:49;69.19;43.54;85.48;;
48503;Laerm;4954;48.476;8.168;2024-03-02T13:14:16;63.20;44.39;74.43;;
48503;Laerm;4954;48.476;8.168;2024-03-02T13:16:46;58.87;42.59;72.57;;
48503;Laerm;4954;48.476;8.168;2024-03-02T13:19:30;66.30;42.41;87.08;;
48503;Laerm;4954;48.476;8.168;2024-03-02T13:21:57;63.00;42.29;72.58;;
48503;Laerm;4954;48.476;8.168;2024-03-02T13:24:25;67.43;46.45;86.39;;
48503;Laerm;4954;48.476;8.168;2024-03-02T13:26:54;61.06;42.09;73.07;;
48503;Laerm;4954;48.476;8.168;2024-03-02T13:29:24;59.61;42.09;69.37;;
48503;Laerm;4954;48.476;8.168;2024-03-02T13:31:51;65.52;47.02;79.70;;
48503;Laerm;4954;48.476;8.168;2024-03-02T13:34:18;61.98;44.83;72.32;;
48503;Laerm;4954;48.476;8.168;2024-03-02T13:36:46;66.44;46.33;83.09;;
48503;Laerm;4954;48.476;8.168;2024-03-02T13:39:13;61.11;44.58;70.06;;
48503;Laerm;4954;48.476;8.168;2024-03-02T13:41:41;65.34;42.65;83.27;;
48503;Laerm;4954;48.476;8.168;2024-03-02T13:44:10;64.10;43.29;73.67;;
48503;Laerm;4954;48.476;8.168;2024-03-02T13:46:37;69.47;45.33;91.16;;
48503;Laerm;4954;48.476;8.168;2024-03-02T13:49:04;64.03;45.20;79.72;;
48503;Laerm;4954;48.476;8.168;2024-03-02T13:51:31;61.96;43.85;75.37;;
48503;Laerm;4954;48.476;8.168;2024-03-02T13:54:00;67.20;45.89;80.18;;
48503;Laerm;4954;48.476;8.168;2024-03-02T13:56:28;61.35;42.16;71.57;;
48503;Laerm;4954;48.476;8.168;2024-03-02T13:58:56;63.28;47.59;72.99;;
48503;Laerm;4954;48.476;8.168;2024-03-02T14:01:23;62.39;44.23;74.19;;
48503;Laerm;4954;48.476;8.168;2024-03-02T14:03:51;62.91;44.80;74.46;;